Time;durP1;ratioP1;P1;durP2;ratioP2;P2;SDS_P1;SDS_P2;PMS_P1;PMS_P2;Temp;Humidity;BMP_temperature;BMP_pressure;BME280_temperature;BME280_humidity;BME280_pressure;Samples;Min_cycle;Max_cycle;Signal;HPM_P1;HPM_P2
2023/10/26 00:14:33;;;;;;;0.00;0.00;;;22.40;51.60;;;;;;5129039;27;20875;-43
2023/10/26 00:17:03;;;;;;;0.00;0.00;;;24.40;50.00;;;;;;5109064;28;20225;-46
2023/10/26 00:19:35;;;;;;;0.00;0.00;;;24.70;49.30;;;;;;5109070;28;20211;-47
2023/10/26 00:30:40;;;;;;;0.00;0.00;;;22.30;47.30;;;;;;5098507;27;20583;-44
2023/10/26 00:33:11;;;;;;;0.10;0.10;;;24.10;49.90;;;;;;5088285;28;20203;-46
2023/10/26 00:35:42;;;;;;;0.10;0.10;;;24.00;50.60;;;;;;5074440;28;20600;-47
2023/10/26 00:38:12;;;;;;;0.00;0.00;;;24.10;51.10;;;;;;5080543;28;20198;-46
2023/10/26 02:18:08;;;;;;;0.00;0.00;;;22.10;48.90;;;;;;5107791;27;21132;-46
2023/10/26 02:20:38;;;;;;;0.00;0.00;;;23.80;44.80;;;;;;5086404;28;20198;-43
2023/10/26 02:23:09;;;;;;;0.00;0.00;;;23.90;44.20;;;;;;5077275;28;20673;-43
2023/10/26 02:25:40;;;;;;;0.00;0.00;;;24.00;44.00;;;;;;5086362;28;20637;-45
2023/10/26 02:28:15;;;;;;;0.10;0.10;;;24.00;43.90;;;;;;5068452;28;20591;-43
2023/10/26 02:30:46;;;;;;;0.10;0.10;;;23.90;44.20;;;;;;5086847;28;20663;-43
2023/10/26 02:33:19;;;;;;;0.10;0.10;;;23.90;44.00;;;;;;5088828;28;20198;-46
2023/10/26 02:35:49;;;;;;;0.00;0.00;;;23.80;44.10;;;;;;5075534;28;20223;-45
2023/10/26 02:38:20;;;;;;;0.10;0.10;;;23.80;44.20;;;;;;5066992;28;20734;-45
2023/10/26 02:40:51;;;;;;;0.00;0.00;;;23.80;44.40;;;;;;5087474;28;20194;-44
2023/10/26 02:43:21;;;;;;;0.08;0.08;;;23.80;44.90;;;;;;5088671;28;20194;-47
2023/10/26 02:46:01;;;;;;;0.10;0.10;;;23.80;44.60;;;;;;5087562;28;20198;-44
2023/10/26 02:48:34;;;;;;;0.00;0.00;;;23.70;44.60;;;;;;5086553;28;20696;-47
2023/10/26 02:51:05;;;;;;;0.10;0.10;;;23.70;45.00;;;;;;5087543;28;20194;-46
2023/10/26 02:53:35;;;;;;;0.03;0.03;;;23.70;44.30;;;;;;5088009;28;20230;-44
2023/10/26 02:56:06;;;;;;;0.10;0.10;;;23.70;44.20;;;;;;5086935;28;20596;-44
2023/10/26 02:58:37;;;;;;;0.10;0.10;;;23.70;44.30;;;;;;5087771;28;20582;-46
2023/10/26 03:01:08;;;;;;;0.10;0.10;;;23.70;44.50;;;;;;5087666;28;20206;-45
2023/10/26 03:03:40;;;;;;;0.10;0.10;;;23.70;44.70;;;;;;5077896;28;20194;-46
2023/10/26 03:06:11;;;;;;;0.00;0.00;;;23.70;44.70;;;;;;5088127;28;20197;-47
2023/10/26 03:08:41;;;;;;;0.05;0.05;;;23.70;44.80;;;;;;5105090;22;20223;-52
2023/10/26 03:11:12;;;;;;;0.10;0.10;;;23.70;44.70;;;;;;5066850;28;20658;-55
2023/10/26 03:13:43;;;;;;;0.10;0.10;;;23.70;44.70;;;;;;5067291;28;20230;-53
2023/10/26 03:16:13;;;;;;;0.10;0.10;;;23.70;44.60;;;;;;5066963;28;20250;-53
2023/10/26 03:18:46;;;;;;;0.10;0.10;;;23.70;44.60;;;;;;5073095;28;20233;-55
2023/10/26 03:21:18;;;;;;;0.00;0.00;;;23.70;44.50;;;;;;5054529;28;20187;-52
2023/10/26 03:23:52;;;;;;;0.10;0.10;;;23.70;44.60;;;;;;5053780;28;20198;-49
2023/10/26 03:26:23;;;;;;;0.00;0.00;;;23.70;44.50;;;;;;5053600;28;20226;-55
2023/10/26 03:28:54;;;;;;;0.08;0.08;;;23.70;44.50;;;;;;5068447;28;20218;-52
2023/10/26 03:31:25;;;;;;;0.10;0.10;;;23.60;44.50;;;;;;5053559;28;20199;-56
2023/10/26 03:33:57;;;;;;;0.10;0.10;;;23.70;44.60;;;;;;5074160;28;20677;-57
2023/10/26 03:36:28;;;;;;;0.10;0.10;;;23.70;44.60;;;;;;5052939;28;20220;-56
2023/10/26 03:38:59;;;;;;;0.10;0.10;;;23.70;44.60;;;;;;5057897;28;20225;-53
2023/10/26 03:41:29;;;;;;;0.00;0.00;;;23.60;44.50;;;;;;5063642;28;20662;-51
2023/10/26 03:44:00;;;;;;;0.05;0.05;;;23.60;44.50;;;;;;5073428;28;20198;-51
2023/10/26 03:46:31;;;;;;;0.03;0.03;;;23.60;44.60;;;;;;5053460;28;20200;-50
2023/10/26 03:49:03;;;;;;;0.10;0.10;;;23.60;44.70;;;;;;5052560;28;20648;-50
2023/10/26 03:51:34;;;;;;;0.10;0.10;;;23.60;44.60;;;;;;5053603;28;20191;-55
2023/10/26 03:54:05;;;;;;;0.00;0.00;;;23.60;44.60;;;;;;5054607;28;20647;-51
2023/10/26 03:56:35;;;;;;;0.10;0.10;;;23.70;44.60;;;;;;5053411;28;20227;-55
2023/10/26 03:59:06;;;;;;;0.10;0.10;;;23.60;44.50;;;;;;5052202;28;20195;-60
2023/10/26 04:01:37;;;;;;;0.10;0.10;;;23.60;44.30;;;;;;5053489;28;20569;-59
2023/10/26 04:04:10;;;;;;;0.00;0.00;;;23.60;44.30;;;;;;5067279;28;20557;-60
2023/10/26 04:09:23;;;;;;;0.10;0.10;;;23.70;44.00;;;;;;5030135;28;20222;-49
2023/10/26 04:11:56;;;;;;;0.10;0.10;;;23.70;43.80;;;;;;5024831;28;20219;-47
2023/10/26 04:14:27;;;;;;;0.10;0.10;;;23.70;43.70;;;;;;5050673;28;20252;-48
2023/10/26 04:16:58;;;;;;;0.10;0.10;;;23.70;43.70;;;;;;5031810;28;20224;-47
2023/10/26 04:19:33;;;;;;;0.10;0.10;;;23.70;43.50;;;;;;5032924;28;20565;-46
2023/10/26 04:22:05;;;;;;;0.10;0.10;;;23.70;43.50;;;;;;5036147;28;20728;-48
2023/10/26 04:24:37;;;;;;;0.10;0.10;;;23.70;43.40;;;;;;5032307;28;20196;-47
2023/10/26 04:27:07;;;;;;;0.10;0.10;;;23.70;43.30;;;;;;5013066;28;20212;-46
2023/10/26 04:29:38;;;;;;;0.00;0.00;;;23.70;43.20;;;;;;5014723;28;20192;-48
2023/10/26 04:32:10;;;;;;;0.10;0.10;;;23.70;43.30;;;;;;5032072;28;20192;-48
2023/10/26 04:34:44;;;;;;;0.10;0.10;;;23.70;43.30;;;;;;5031761;28;20204;-46
2023/10/26 04:37:14;;;;;;;0.10;0.10;;;23.70;43.20;;;;;;5032091;28;20763;-46
2023/10/26 04:39:45;;;;;;;0.10;0.10;;;23.70;43.20;;;;;;5032111;28;20207;-48
2023/10/26 04:42:16;;;;;;;0.00;0.00;;;23.80;43.30;;;;;;5032711;28;20670;-47
2023/10/26 04:44:47;;;;;;;0.00;0.00;;;23.80;43.10;;;;;;5032421;28;20671;-48
2023/10/26 04:47:18;;;;;;;0.10;0.10;;;23.80;43.00;;;;;;5031813;28;20303;-47
2023/10/26 04:49:50;;;;;;;0.00;0.00;;;23.80;43.00;;;;;;5031931;28;20207;-46
2023/10/26 04:52:21;;;;;;;0.00;0.00;;;23.80;42.90;;;;;;5031656;28;20197;-48
2023/10/26 04:54:52;;;;;;;0.10;0.10;;;23.80;42.80;;;;;;5031522;28;20203;-48
2023/10/26 04:57:22;;;;;;;0.05;0.05;;;23.80;42.80;;;;;;5031866;28;20286;-46
2023/10/26 04:59:53;;;;;;;0.10;0.10;;;23.80;42.70;;;;;;5031423;28;20207;-49
2023/10/26 05:02:24;;;;;;;0.10;0.10;;;23.80;42.60;;;;;;5031131;28;20291;-47
2023/10/26 05:04:56;;;;;;;0.00;0.00;;;23.80;43.20;;;;;;5032075;28;20686;-49
2023/10/26 05:07:27;;;;;;;0.08;0.08;;;23.80;42.60;;;;;;5051503;22;20216;-53
2023/10/26 05:09:58;;;;;;;0.00;0.00;;;23.80;42.60;;;;;;5051470;28;20203;-51
2023/10/26 05:12:28;;;;;;;0.00;0.00;;;23.80;42.50;;;;;;5050834;28;20218;-56
2023/10/26 05:14:59;;;;;;;0.00;0.00;;;23.80;42.60;;;;;;5051589;28;20199;-57
2023/10/26 05:17:30;;;;;;;0.00;0.00;;;23.80;42.60;;;;;;5051728;28;20228;-52
2023/10/26 05:20:03;;;;;;;0.10;0.10;;;23.80;42.50;;;;;;5049214;28;20200;-52
2023/10/26 05:22:34;;;;;;;0.00;0.00;;;23.90;42.50;;;;;;5032210;28;20200;-54
2023/10/26 05:25:06;;;;;;;0.10;0.10;;;23.80;42.60;;;;;;5032349;28;20195;-55
2023/10/26 05:27:36;;;;;;;0.00;0.00;;;23.90;42.70;;;;;;5033118;28;20307;-57
2023/10/26 05:30:08;;;;;;;0.10;0.10;;;23.90;42.80;;;;;;5048126;28;20281;-57
2023/10/26 05:32:39;;;;;;;0.00;0.00;;;23.90;42.80;;;;;;5031351;28;20596;-57
2023/10/26 05:35:13;;;;;;;0.10;0.10;;;23.90;42.70;;;;;;5031234;28;20279;-57
2023/10/26 05:37:44;;;;;;;0.10;0.10;;;23.90;42.70;;;;;;5030846;28;20257;-56
2023/10/26 05:40:15;;;;;;;0.00;0.00;;;23.80;42.50;;;;;;5044979;28;20211;-57
2023/10/26 05:42:46;;;;;;;0.00;0.00;;;23.90;42.60;;;;;;5051507;28;20670;-54
2023/10/26 05:45:16;;;;;;;0.00;0.00;;;23.90;42.40;;;;;;5047333;28;20242;-53
2023/10/26 05:47:52;;;;;;;0.10;0.10;;;23.90;42.20;;;;;;5030612;28;20299;-57
2023/10/26 05:50:25;;;;;;;0.00;0.00;;;23.90;42.20;;;;;;5030807;28;20188;-52
2023/10/26 05:52:55;;;;;;;0.00;0.00;;;23.90;42.10;;;;;;5030980;28;20196;-50
2023/10/26 05:55:26;;;;;;;0.00;0.00;;;23.90;42.30;;;;;;5044326;28;20192;-57
2023/10/26 05:57:57;;;;;;;0.00;0.00;;;23.80;42.30;;;;;;5030687;28;20239;-55
2023/10/26 06:00:27;;;;;;;0.00;0.00;;;23.80;42.00;;;;;;5031053;28;20207;-56
2023/10/26 06:02:58;;;;;;;0.00;0.00;;;23.90;41.90;;;;;;5036381;28;20223;-52
2023/10/26 06:05:31;;;;;;;0.00;0.00;;;23.90;41.90;;;;;;5051130;28;20191;-56
2023/10/26 06:08:01;;;;;;;0.00;0.00;;;23.90;41.80;;;;;;5050758;28;20276;-54
2023/10/26 06:10:32;;;;;;;0.00;0.00;;;23.90;41.60;;;;;;5047002;28;20537;-55
2023/10/26 06:13:03;;;;;;;0.00;0.00;;;23.80;41.60;;;;;;5041194;28;20186;-56
2023/10/26 06:15:33;;;;;;;0.10;0.10;;;23.80;41.50;;;;;;5063914;28;20199;-53
2023/10/26 06:18:04;;;;;;;0.10;0.10;;;23.80;41.50;;;;;;5048427;28;20657;-53
2023/10/26 06:20:36;;;;;;;0.00;0.00;;;23.80;41.40;;;;;;5056191;28;20199;-57
2023/10/26 06:23:07;;;;;;;0.10;0.10;;;23.80;41.50;;;;;;5053185;28;20199;-54
2023/10/26 06:25:38;;;;;;;0.00;0.00;;;23.80;41.50;;;;;;5050515;28;20202;-57
2023/10/26 06:28:09;;;;;;;0.00;0.00;;;23.80;41.60;;;;;;5031099;28;20229;-56
2023/10/26 06:30:40;;;;;;;0.00;0.00;;;23.80;41.70;;;;;;5030119;28;20370;-55
2023/10/26 06:33:12;;;;;;;0.00;0.00;;;23.80;41.70;;;;;;5031327;28;20203;-54
2023/10/26 06:35:45;;;;;;;0.10;0.10;;;23.80;41.70;;;;;;5031219;28;20759;-53
2023/10/26 06:38:16;;;;;;;0.00;0.00;;;23.80;41.70;;;;;;5030844;28;20357;-56
2023/10/26 06:40:47;;;;;;;0.10;0.10;;;23.80;41.70;;;;;;5049882;28;20261;-54
2023/10/26 06:43:18;;;;;;;0.00;0.00;;;23.70;41.70;;;;;;5050933;28;20196;-54
2023/10/26 06:45:48;;;;;;;0.00;0.00;;;23.70;41.70;;;;;;5050942;28;20646;-53
2023/10/26 06:48:20;;;;;;;0.00;0.00;;;23.70;41.80;;;;;;5050817;28;20615;-50
2023/10/26 06:50:59;;;;;;;0.10;0.10;;;23.70;41.80;;;;;;5051025;28;20286;-54
2023/10/26 06:53:29;;;;;;;0.05;0.05;;;23.70;41.80;;;;;;5053311;28;20572;-53
2023/10/26 06:56:00;;;;;;;0.00;0.00;;;23.70;41.80;;;;;;5054574;28;20207;-53
2023/10/26 06:58:31;;;;;;;0.00;0.00;;;23.60;41.70;;;;;;5054218;28;20296;-51
2023/10/26 07:01:08;;;;;;;0.00;0.00;;;23.60;41.70;;;;;;5053930;28;20728;-58
2023/10/26 07:03:39;;;;;;;0.00;0.00;;;23.50;41.80;;;;;;5054125;28;20191;-53
2023/10/26 07:06:12;;;;;;;0.00;0.00;;;23.50;41.80;;;;;;5054083;28;20234;-52
2023/10/26 07:08:42;;;;;;;0.00;0.00;;;23.50;41.80;;;;;;5070406;22;20223;-48
2023/10/26 07:11:13;;;;;;;0.00;0.00;;;23.50;41.90;;;;;;5054293;28;20209;-46
2023/10/26 07:13:44;;;;;;;0.10;0.10;;;23.50;41.90;;;;;;5054097;28;20196;-46
2023/10/26 07:16:14;;;;;;;0.10;0.10;;;23.50;41.90;;;;;;5053488;28;20203;-43
2023/10/26 07:18:45;;;;;;;0.00;0.00;;;23.40;42.00;;;;;;5054381;28;20312;-49
2023/10/26 07:21:17;;;;;;;0.10;0.10;;;23.40;42.00;;;;;;5054239;28;20283;-47
2023/10/26 07:23:48;;;;;;;0.00;0.00;;;23.40;42.00;;;;;;5053952;28;20211;-47
2023/10/26 07:26:22;;;;;;;0.10;0.10;;;23.40;42.10;;;;;;5053782;28;20210;-47
2023/10/26 07:28:52;;;;;;;0.10;0.10;;;23.30;42.10;;;;;;5054146;28;20715;-45
2023/10/26 07:31:24;;;;;;;0.00;0.00;;;23.30;42.10;;;;;;5053664;28;20200;-46
2023/10/26 07:33:55;;;;;;;0.10;0.10;;;23.30;42.20;;;;;;5053657;28;20195;-46
2023/10/26 07:36:30;;;;;;;0.00;0.00;;;23.30;42.20;;;;;;5053829;28;20196;-45
2023/10/26 07:39:02;;;;;;;0.10;0.10;;;23.20;42.20;;;;;;5053875;28;20242;-48
2023/10/26 07:41:33;;;;;;;0.10;0.10;;;23.20;42.20;;;;;;5054149;28;20194;-49
2023/10/26 07:44:03;;;;;;;0.10;0.10;;;23.20;42.30;;;;;;5053797;28;20646;-47
2023/10/26 07:46:34;;;;;;;0.05;0.05;;;23.20;42.30;;;;;;5053159;28;20575;-46
2023/10/26 07:49:04;;;;;;;0.00;0.00;;;23.10;42.30;;;;;;5053526;28;20203;-48
2023/10/26 07:51:37;;;;;;;0.00;0.00;;;23.10;42.30;;;;;;5053366;28;20195;-49
2023/10/26 07:54:08;;;;;;;0.08;0.08;;;23.10;42.40;;;;;;5053430;28;20195;-49
2023/10/26 07:56:39;;;;;;;0.10;0.10;;;23.10;42.50;;;;;;5053228;28;20213;-49
2023/10/26 07:59:10;;;;;;;0.10;0.10;;;23.00;42.40;;;;;;5053100;28;20223;-48
2023/10/26 08:01:41;;;;;;;0.10;0.10;;;23.00;42.50;;;;;;5052579;28;20195;-46
2023/10/26 08:04:11;;;;;;;0.10;0.10;;;23.00;42.50;;;;;;5053145;28;20202;-48
2023/10/26 08:06:44;;;;;;;0.10;0.10;;;23.00;42.50;;;;;;5053008;28;20203;-45
2023/10/26 08:09:14;;;;;;;0.00;0.00;;;22.90;42.60;;;;;;5068338;22;20497;-52
2023/10/26 08:11:45;;;;;;;0.10;0.10;;;22.90;42.60;;;;;;5052578;28;20199;-52
2023/10/26 08:14:16;;;;;;;0.10;0.10;;;22.90;42.60;;;;;;5064240;28;20202;-55
2023/10/26 08:16:46;;;;;;;0.10;0.10;;;22.90;42.70;;;;;;5051523;28;20433;-55
2023/10/26 08:19:17;;;;;;;0.00;0.00;;;22.90;42.70;;;;;;5052759;28;20238;-53
2023/10/26 08:21:49;;;;;;;0.10;0.10;;;22.80;42.80;;;;;;5052750;28;20195;-50
2023/10/26 08:24:20;;;;;;;0.03;0.03;;;22.80;42.80;;;;;;5053468;28;20614;-54
2023/10/26 08:26:51;;;;;;;0.10;0.10;;;22.80;42.80;;;;;;5053401;28;20562;-52
2023/10/26 08:29:21;;;;;;;0.00;0.00;;;22.80;42.80;;;;;;5052868;28;20195;-50
2023/10/26 08:31:52;;;;;;;0.00;0.00;;;22.70;42.80;;;;;;5052791;28;20655;-57
2023/10/26 08:34:23;;;;;;;0.03;0.03;;;22.70;42.80;;;;;;5052947;28;20260;-51
2023/10/26 08:36:55;;;;;;;0.00;0.00;;;22.70;42.90;;;;;;5053063;28;20192;-53
2023/10/26 08:39:26;;;;;;;0.00;0.00;;;22.70;43.00;;;;;;5044537;28;20309;-58
2023/10/26 08:41:58;;;;;;;0.10;0.10;;;22.60;42.90;;;;;;5032480;28;20200;-57
2023/10/26 08:44:30;;;;;;;0.10;0.10;;;22.60;43.00;;;;;;5032675;28;20600;-55
2023/10/26 08:47:04;;;;;;;0.10;0.10;;;22.60;43.00;;;;;;5032538;28;20235;-48
2023/10/26 08:49:36;;;;;;;0.00;0.00;;;22.60;43.00;;;;;;5032903;28;20196;-49
2023/10/26 08:52:09;;;;;;;0.10;0.10;;;22.60;43.10;;;;;;5022553;28;20201;-59
2023/10/26 08:54:40;;;;;;;0.10;0.10;;;22.50;43.00;;;;;;5013377;28;20196;-53
2023/10/26 08:57:12;;;;;;;0.10;0.10;;;22.50;43.10;;;;;;5021145;28;20209;-53
2023/10/26 08:59:42;;;;;;;0.00;0.00;;;22.50;43.10;;;;;;5012582;28;20204;-57
2023/10/26 09:02:13;;;;;;;0.10;0.10;;;22.50;43.10;;;;;;5011576;28;20199;-51
2023/10/26 09:05:04;;;;;;;0.08;0.08;;;22.50;43.20;;;;;;5021863;28;20207;-52
2023/10/26 09:07:37;;;;;;;0.05;0.05;;;22.40;43.20;;;;;;5051078;22;20227;-49
2023/10/26 09:10:08;;;;;;;0.10;0.10;;;22.40;43.20;;;;;;5051848;28;20191;-49
2023/10/26 09:12:39;;;;;;;0.00;0.00;;;22.40;43.20;;;;;;5051183;28;20631;-50
2023/10/26 09:15:11;;;;;;;0.00;0.00;;;22.40;43.30;;;;;;5051376;28;20198;-49
2023/10/26 09:17:41;;;;;;;0.00;0.00;;;22.30;43.30;;;;;;5050887;28;20790;-48
2023/10/26 09:20:22;;;;;;;0.10;0.10;;;22.30;43.30;;;;;;5033252;28;20196;-49
2023/10/26 09:22:55;;;;;;;0.10;0.10;;;22.30;43.40;;;;;;5030753;28;20610;-48
2023/10/26 09:25:26;;;;;;;0.00;0.00;;;22.30;43.40;;;;;;5031115;28;20204;-50
2023/10/26 09:28:04;;;;;;;0.00;0.00;;;22.30;43.40;;;;;;5012021;28;20680;-50
2023/10/26 09:30:36;;;;;;;0.10;0.10;;;22.30;43.50;;;;;;5011604;28;20200;-49
2023/10/26 09:33:07;;;;;;;0.10;0.10;;;22.20;43.50;;;;;;5030747;28;20284;-50
2023/10/26 09:35:37;;;;;;;0.10;0.10;;;22.20;43.50;;;;;;5031052;28;20544;-48
2023/10/26 09:38:10;;;;;;;0.00;0.00;;;22.20;43.60;;;;;;5031454;28;20226;-49
2023/10/26 09:40:41;;;;;;;0.10;0.10;;;22.20;43.60;;;;;;5030553;28;20191;-42
2023/10/26 09:43:12;;;;;;;0.10;0.10;;;22.20;43.60;;;;;;5011328;28;20196;-49
2023/10/26 09:45:43;;;;;;;0.10;0.10;;;22.10;43.60;;;;;;5027693;28;20193;-45
2023/10/26 09:48:14;;;;;;;0.10;0.10;;;22.10;43.60;;;;;;5030984;28;20220;-44
2023/10/26 09:50:45;;;;;;;0.10;0.10;;;22.10;43.60;;;;;;5031154;28;20191;-47
2023/10/26 09:53:19;;;;;;;0.10;0.10;;;22.10;43.60;;;;;;5031699;28;20200;-50
2023/10/26 09:55:51;;;;;;;0.05;0.05;;;22.10;43.60;;;;;;5030898;28;20231;-51
2023/10/26 09:58:23;;;;;;;0.10;0.10;;;22.10;43.70;;;;;;5030776;28;20228;-48
2023/10/26 10:00:54;;;;;;;0.10;0.10;;;22.00;43.70;;;;;;5031184;28;20207;-49
2023/10/26 10:03:26;;;;;;;0.10;0.10;;;22.00;43.70;;;;;;5030802;28;20215;-49
2023/10/26 10:05:57;;;;;;;0.10;0.10;;;22.00;43.70;;;;;;5031182;28;20282;-50
2023/10/26 10:09:05;;;;;;;0.10;0.10;;;22.00;43.80;;;;;;5059544;22;20588;-53
2023/10/26 10:11:36;;;;;;;0.10;0.10;;;21.90;43.70;;;;;;5038506;28;20199;-47
2023/10/26 10:14:06;;;;;;;0.10;0.10;;;21.90;43.80;;;;;;5050853;28;20200;-52
2023/10/26 10:16:53;;;;;;;0.10;0.10;;;21.90;43.80;;;;;;5045980;28;20659;-51
2023/10/26 10:19:26;;;;;;;0.10;0.10;;;21.90;43.80;;;;;;5049874;28;20526;-56
2023/10/26 10:21:56;;;;;;;0.10;0.10;;;21.90;43.90;;;;;;5041300;28;20730;-48
2023/10/26 10:24:55;;;;;;;0.10;0.10;;;21.80;44.50;;;;;;5030592;28;20196;-45
2023/10/26 10:27:26;;;;;;;0.00;0.00;;;21.80;43.90;;;;;;5030728;28;20220;-54
2023/10/26 10:30:00;;;;;;;0.10;0.10;;;21.80;43.90;;;;;;5035165;28;20219;-48
2023/10/26 10:32:53;;;;;;;0.00;0.00;;;21.80;43.90;;;;;;5034377;28;20219;-52
2023/10/26 10:35:43;;;;;;;0.10;0.10;;;21.80;44.00;;;;;;5035209;28;20651;-52
2023/10/26 10:38:26;;;;;;;0.10;0.10;;;21.70;44.00;;;;;;5034043;28;20690;-53
2023/10/26 10:41:17;;;;;;;0.10;0.10;;;21.70;44.10;;;;;;5014468;28;20200;-47
2023/10/26 10:43:48;;;;;;;0.10;0.10;;;21.70;44.10;;;;;;5014424;28;20197;-53
2023/10/26 10:46:21;;;;;;;0.10;0.10;;;21.70;44.10;;;;;;5024119;28;20204;-50
2023/10/26 10:49:05;;;;;;;0.10;0.10;;;21.70;44.10;;;;;;5033822;28;20282;-54
2023/10/26 10:51:37;;;;;;;0.00;0.00;;;21.60;44.10;;;;;;5033907;28;20271;-49
2023/10/26 10:54:09;;;;;;;0.10;0.10;;;21.60;44.10;;;;;;5034579;28;20207;-48
2023/10/26 10:56:42;;;;;;;0.10;0.10;;;21.60;44.20;;;;;;5034809;28;20204;-55
2023/10/26 10:59:20;;;;;;;0.10;0.10;;;21.60;44.20;;;;;;5034500;28;20246;-52
2023/10/26 11:01:51;;;;;;;0.00;0.00;;;21.60;44.30;;;;;;5034101;28;20275;-56
2023/10/26 11:04:24;;;;;;;0.10;0.10;;;21.50;44.20;;;;;;5034075;28;20203;-53
2023/10/26 11:06:55;;;;;;;0.00;0.00;;;21.50;44.20;;;;;;5033422;28;20568;-53
2023/10/26 11:09:37;;;;;;;0.10;0.10;;;21.50;44.20;;;;;;5034313;28;20204;-54
2023/10/26 11:12:16;;;;;;;0.00;0.00;;;21.50;44.20;;;;;;5057479;22;20242;-48
2023/10/26 11:14:53;;;;;;;0.03;0.03;;;21.50;44.30;;;;;;5034214;28;20211;-48
2023/10/26 11:17:25;;;;;;;0.10;0.10;;;21.50;44.30;;;;;;5033699;28;20298;-46
2023/10/26 11:19:56;;;;;;;0.10;0.10;;;21.50;44.30;;;;;;5034132;28;20720;-47
2023/10/26 11:22:27;;;;;;;0.10;0.10;;;21.40;44.30;;;;;;5034073;28;20200;-47
2023/10/26 11:24:58;;;;;;;0.00;0.00;;;21.40;44.30;;;;;;5051039;28;20245;-49
2023/10/26 11:27:35;;;;;;;0.10;0.10;;;21.40;44.30;;;;;;5054281;28;20577;-48
2023/10/26 11:30:07;;;;;;;0.05;0.05;;;21.40;44.30;;;;;;5054216;28;20201;-45
2023/10/26 11:32:38;;;;;;;0.10;0.10;;;21.40;44.40;;;;;;5054054;28;20195;-46
2023/10/26 11:35:11;;;;;;;0.08;0.08;;;21.30;44.30;;;;;;5053640;28;20202;-46
2023/10/26 11:37:44;;;;;;;0.10;0.10;;;21.30;44.40;;;;;;5054417;28;20215;-48
2023/10/26 11:40:16;;;;;;;0.10;0.10;;;21.30;44.40;;;;;;5053682;28;20227;-48
2023/10/26 11:42:55;;;;;;;0.10;0.10;;;21.30;44.40;;;;;;5054215;28;20199;-47
2023/10/26 11:45:28;;;;;;;0.03;0.03;;;21.30;44.50;;;;;;5054017;28;20199;-51
2023/10/26 11:48:00;;;;;;;0.03;0.03;;;21.30;44.50;;;;;;5053999;28;20216;-49
2023/10/26 11:50:32;;;;;;;0.10;0.10;;;21.20;44.60;;;;;;5053674;28;20693;-48
2023/10/26 11:53:03;;;;;;;0.05;0.05;;;21.20;44.40;;;;;;5053476;28;20199;-49
2023/10/26 11:55:34;;;;;;;0.10;0.10;;;21.20;44.50;;;;;;5053951;28;20206;-49
2023/10/26 11:58:07;;;;;;;0.10;0.10;;;21.20;44.50;;;;;;5053830;28;20230;-50
2023/10/26 12:00:38;;;;;;;0.00;0.00;;;21.20;44.60;;;;;;5054304;28;20196;-46
2023/10/26 12:03:08;;;;;;;0.03;0.03;;;21.20;44.60;;;;;;5053741;28;20202;-47
2023/10/26 12:05:39;;;;;;;0.10;0.10;;;21.20;44.60;;;;;;5053219;28;20206;-46
2023/10/26 12:08:10;;;;;;;0.10;0.10;;;21.10;44.60;;;;;;5053728;28;20215;-48
2023/10/26 12:10:42;;;;;;;0.10;0.10;;;21.10;45.20;;;;;;5048337;28;20574;-47
2023/10/26 12:13:14;;;;;;;0.10;0.10;;;21.10;44.60;;;;;;5056774;28;20822;-49
2023/10/26 12:15:45;;;;;;;0.08;0.08;;;21.10;44.60;;;;;;5053511;28;20211;-49
2023/10/26 12:18:16;;;;;;;0.10;0.10;;;21.10;44.60;;;;;;5066062;28;20222;-45
2023/10/26 12:20:46;;;;;;;0.10;0.10;;;21.10;44.70;;;;;;5072777;28;20198;-47
2023/10/26 12:23:17;;;;;;;0.10;0.10;;;21.00;44.70;;;;;;5072540;28;20202;-46
2023/10/26 12:25:47;;;;;;;0.10;0.10;;;21.00;44.70;;;;;;5072492;28;20662;-46
2023/10/26 12:28:20;;;;;;;0.10;0.10;;;21.00;44.70;;;;;;5072635;28;20219;-46
2023/10/26 12:30:51;;;;;;;0.10;0.10;;;21.00;44.70;;;;;;5073013;28;20199;-45
2023/10/26 12:33:22;;;;;;;0.10;0.10;;;21.00;44.80;;;;;;5072972;28;20210;-48
2023/10/26 12:35:53;;;;;;;0.10;0.10;;;20.90;44.70;;;;;;5072662;28;20209;-48
2023/10/26 12:38:24;;;;;;;0.05;0.05;;;20.90;44.70;;;;;;5072748;28;20690;-47
2023/10/26 12:40:54;;;;;;;0.10;0.10;;;20.90;44.80;;;;;;5032992;28;20204;-47
2023/10/26 12:43:27;;;;;;;0.10;0.10;;;20.90;44.80;;;;;;5032917;28;20656;-49
2023/10/26 12:45:58;;;;;;;0.10;0.10;;;20.90;44.80;;;;;;5033040;28;20196;-48
2023/10/26 12:48:28;;;;;;;0.10;0.10;;;20.90;44.80;;;;;;5032796;28;20219;-45
2023/10/26 12:50:59;;;;;;;0.10;0.10;;;20.80;44.80;;;;;;5032070;28;20648;-46
2023/10/26 12:53:30;;;;;;;0.10;0.10;;;20.90;44.80;;;;;;5032622;28;20206;-50
2023/10/26 12:56:01;;;;;;;0.10;0.10;;;20.80;44.80;;;;;;5033057;28;20660;-49
2023/10/26 12:58:35;;;;;;;0.10;0.10;;;20.80;44.80;;;;;;5033096;28;20216;-48
2023/10/26 13:01:06;;;;;;;0.10;0.10;;;20.80;44.90;;;;;;5032651;28;20203;-48
2023/10/26 13:03:37;;;;;;;0.10;0.10;;;20.80;44.90;;;;;;5032478;28;20196;-46
2023/10/26 13:06:08;;;;;;;0.10;0.10;;;20.80;44.90;;;;;;5032305;28;20211;-48
2023/10/26 13:08:38;;;;;;;0.10;0.10;;;20.80;44.90;;;;;;5033408;28;20224;-47
2023/10/26 13:11:09;;;;;;;0.00;0.00;;;20.70;44.90;;;;;;5068016;22;20223;-52
2023/10/26 13:13:42;;;;;;;0.10;0.10;;;20.70;44.90;;;;;;5052108;28;20195;-51
2023/10/26 13:16:12;;;;;;;0.10;0.10;;;20.70;44.90;;;;;;5052107;28;20578;-47
2023/10/26 13:18:43;;;;;;;0.10;0.10;;;20.70;44.90;;;;;;5052129;28;20227;-52
2023/10/26 13:21:14;;;;;;;0.10;0.10;;;20.70;44.90;;;;;;5052206;28;20198;-51
2023/10/26 13:23:44;;;;;;;0.08;0.08;;;20.70;45.00;;;;;;5052094;28;20196;-53
2023/10/26 13:26:15;;;;;;;0.00;0.00;;;20.60;45.00;;;;;;5052129;28;20290;-55
2023/10/26 13:28:48;;;;;;;0.10;0.10;;;20.60;45.00;;;;;;5051654;28;20219;-51
2023/10/26 13:31:18;;;;;;;0.10;0.10;;;20.60;45.00;;;;;;5051982;28;20196;-49
2023/10/26 13:33:49;;;;;;;0.00;0.00;;;20.60;45.00;;;;;;5051957;28;20620;-47
2023/10/26 13:36:20;;;;;;;0.10;0.10;;;20.60;45.00;;;;;;5051934;28;20198;-50
2023/10/26 13:38:50;;;;;;;0.10;0.10;;;20.60;45.10;;;;;;5051951;28;20223;-49
2023/10/26 13:41:23;;;;;;;0.10;0.10;;;20.50;45.70;;;;;;5052137;28;20196;-49
2023/10/26 13:43:55;;;;;;;0.10;0.10;;;20.50;45.10;;;;;;5051919;28;20195;-53
2023/10/26 13:46:26;;;;;;;0.10;0.10;;;20.50;45.10;;;;;;5051713;28;20231;-45
2023/10/26 13:48:58;;;;;;;0.10;0.10;;;20.50;45.10;;;;;;5051675;28;20315;-49
2023/10/26 13:51:29;;;;;;;0.10;0.10;;;20.40;45.10;;;;;;5052191;28;20222;-47
2023/10/26 13:53:59;;;;;;;0.00;0.00;;;20.50;45.10;;;;;;5051861;28;20199;-47
2023/10/26 13:56:30;;;;;;;0.10;0.10;;;20.40;45.10;;;;;;5051694;28;20196;-51
2023/10/26 13:59:03;;;;;;;0.10;0.10;;;20.40;45.10;;;;;;5051620;28;20215;-57
2023/10/26 14:01:34;;;;;;;0.10;0.10;;;20.40;45.10;;;;;;5051583;28;20192;-49
2023/10/26 14:04:04;;;;;;;0.00;0.00;;;20.40;45.10;;;;;;5051736;28;20199;-48
2023/10/26 14:06:35;;;;;;;0.10;0.10;;;20.40;45.10;;;;;;5053071;28;20558;-50
2023/10/26 14:09:06;;;;;;;0.10;0.10;;;20.30;45.10;;;;;;5051240;28;20207;-48
2023/10/26 14:11:36;;;;;;;0.10;0.10;;;20.30;45.10;;;;;;5054206;28;20198;-54
2023/10/26 14:14:09;;;;;;;0.10;0.10;;;20.30;45.10;;;;;;5055406;28;20708;-50
2023/10/26 14:16:40;;;;;;;0.10;0.10;;;20.30;45.10;;;;;;5071160;28;20195;-53
2023/10/26 14:19:10;;;;;;;0.10;0.10;;;20.30;45.10;;;;;;5051639;28;20191;-52
2023/10/26 14:21:41;;;;;;;0.00;0.00;;;20.20;45.10;;;;;;5051509;28;20200;-50
2023/10/26 14:24:12;;;;;;;0.10;0.10;;;20.20;45.10;;;;;;5051287;28;20203;-48
2023/10/26 14:26:43;;;;;;;0.10;0.10;;;20.20;45.00;;;;;;5051016;28;20558;-52
2023/10/26 14:29:15;;;;;;;0.10;0.10;;;20.20;45.00;;;;;;5051086;28;20195;-52
2023/10/26 14:31:46;;;;;;;0.10;0.10;;;20.20;45.00;;;;;;5051045;28;20195;-48
2023/10/26 14:34:17;;;;;;;0.10;0.10;;;20.20;45.00;;;;;;5051117;28;20211;-51
2023/10/26 14:36:47;;;;;;;0.10;0.10;;;20.10;44.90;;;;;;5050860;28;20658;-48
2023/10/26 14:39:19;;;;;;;0.10;0.10;;;20.10;44.90;;;;;;5051120;28;20586;-53
2023/10/26 14:41:50;;;;;;;0.10;0.10;;;20.10;45.00;;;;;;5051625;28;20202;-51
2023/10/26 14:44:22;;;;;;;0.00;0.00;;;20.10;45.00;;;;;;5051307;28;20231;-52
2023/10/26 14:46:53;;;;;;;0.10;0.10;;;20.10;45.00;;;;;;5051052;28;20200;-50
2023/10/26 14:49:24;;;;;;;0.10;0.10;;;20.10;45.00;;;;;;5051119;28;20203;-52
2023/10/26 14:51:54;;;;;;;0.10;0.10;;;20.00;45.00;;;;;;5051123;28;20191;-50
2023/10/26 14:54:25;;;;;;;0.10;0.10;;;20.00;44.90;;;;;;5051093;28;20196;-50
2023/10/26 14:56:56;;;;;;;0.08;0.08;;;20.00;45.00;;;;;;5050884;28;20680;-53
2023/10/26 14:59:28;;;;;;;0.10;0.10;;;20.00;44.90;;;;;;5050898;28;20570;-49
2023/10/26 15:01:59;;;;;;;0.10;0.10;;;20.00;44.90;;;;;;5050840;28;20203;-53
2023/10/26 15:04:31;;;;;;;0.00;0.00;;;20.00;44.90;;;;;;5051351;28;20199;-55
2023/10/26 15:07:01;;;;;;;0.03;0.03;;;19.90;44.90;;;;;;5051011;28;20219;-52
2023/10/26 15:09:33;;;;;;;0.00;0.00;;;19.90;44.90;;;;;;5050861;28;20207;-54
2023/10/26 15:12:03;;;;;;;0.10;0.10;;;19.90;44.90;;;;;;5051173;28;20207;-50
2023/10/26 15:14:36;;;;;;;0.10;0.10;;;19.90;44.90;;;;;;5052992;28;20196;-50